Etusivu
METAR-TAF:

METAR-TAF

Lentoasemat :

Kuwait, Kuwait

Kuwaitin kansainvälinen lentoasema

Leveyspiiri: 29-13N, Pituuspiiri: 047-59E, korkeus merenpinnasta: 55 m

Tämänhetkinen sää

Tämä raportti tehtiin 24 minuuttia sitten, kello 07.00 UTC
Tuuli 21 kn etelästä/kaakosta
Lämpötila 19°C
Kosteus 37%
Ilmanpaine 1015 hPa
Näkyvyys: 6000 m
(heikkoa) , laajalle levinnyttä pölyä

METAR: OKBK 190700Z 15021KT 6000 -BLDU NSC 19/04 Q1015 NOSIG

Aika: 10:24 (07:24 UTC)

Sääennuste

Tämä raportti tehtiin 8 tuntia ja 39 minuuttia sitten, kello 22.45 UTC
Ennuste voimassa 19. päivästä klo 00 UTC - 20. päivään klo 06 UTC
Tuuli 10 kn etelästä/kaakosta puuskistuen 25 kn:hen
Näkyvyys: 6000 m
Ajoittain
19. päivästä klo 03 UTC - 19. päivään klo 15 UTC
Näkyvyys: 2000 m
pölymyrsky

TAF: OKBK 182245Z 1900/2006 15010G25KT 6000 NSC TEMPO 1903/1915 2000 BLDU

Säähavainnot ja -ennusteet yli 4000 lentoasemalta (METAR- ja TAF-raportit).

Käytössä olevat sääasemat on merkitty karttaan keltaisilla ja punaisilla pisteillä.

Aseta hiiri pisteen päälle nähdäksesi sääaseman nimen.

Klikkaa sitten nähdäksesi säähavainnot ja -ennusteet.

Kartan vaihtaminen: klikkaa mustalla rastilla varustettuja vihreitä pisteitä, niin voit zoomata sisään; viivalla varustettua vihreää pistettä, niin voit zoomata ulos tai vihreitä nuolia, niin pääset viereisille kartoille.


METAR-TAF: